sensor_id;sensor_type;location;lat;lon;timestamp;P1;durP1;ratioP1;P2;durP2;ratioP2
40355;SDS011;26061;50.044;19.930;2023-04-03T00:02:17;25.23;;;13.37;;
40355;SDS011;26061;50.044;19.930;2023-04-03T00:04:42;17.70;;;11.10;;
40355;SDS011;26061;50.044;19.930;2023-04-03T00:07:08;16.53;;;10.40;;
40355;SDS011;26061;50.044;19.930;2023-04-03T00:09:34;19.90;;;11.60;;
40355;SDS011;26061;50.044;19.930;2023-04-03T00:11:59;15.63;;;10.17;;
40355;SDS011;26061;50.044;19.930;2023-04-03T00:14:25;17.40;;;10.63;;
40355;SDS011;26061;50.044;19.930;2023-04-03T00:16:52;19.57;;;11.53;;
40355;SDS011;26061;50.044;19.930;2023-04-03T00:19:18;16.63;;;10.00;;
40355;SDS011;26061;50.044;19.930;2023-04-03T00:21:44;16.90;;;9.97;;
40355;SDS011;26061;50.044;19.930;2023-04-03T00:24:10;16.47;;;9.83;;
40355;SDS011;26061;50.044;19.930;2023-04-03T00:26:36;19.33;;;9.97;;
40355;SDS011;26061;50.044;19.930;2023-04-03T00:29:02;12.90;;;8.43;;
40355;SDS011;26061;50.044;19.930;2023-04-03T00:31:28;11.47;;;7.93;;
40355;SDS011;26061;50.044;19.930;2023-04-03T00:33:53;14.00;;;8.57;;
40355;SDS011;26061;50.044;19.930;2023-04-03T00:36:19;16.87;;;9.33;;
40355;SDS011;26061;50.044;19.930;2023-04-03T00:38:45;24.17;;;14.80;;
40355;SDS011;26061;50.044;19.930;2023-04-03T00:41:11;17.47;;;11.10;;
40355;SDS011;26061;50.044;19.930;2023-04-03T00:43:36;11.37;;;8.07;;
40355;SDS011;26061;50.044;19.930;2023-04-03T00:46:02;16.50;;;7.20;;
40355;SDS011;26061;50.044;19.930;2023-04-03T00:48:33;11.63;;;7.13;;
40355;SDS011;26061;50.044;19.930;2023-04-03T00:51:04;11.77;;;6.87;;
40355;SDS011;26061;50.044;19.930;2023-04-03T00:53:35;12.00;;;7.03;;
40355;SDS011;26061;50.044;19.930;2023-04-03T00:56:08;13.00;;;6.40;;
40355;SDS011;26061;50.044;19.930;2023-04-03T00:58:39;11.83;;;6.33;;
40355;SDS011;26061;50.044;19.930;2023-04-03T01:01:10;9.70;;;5.30;;
40355;SDS011;26061;50.044;19.930;2023-04-03T01:03:39;12.03;;;5.47;;
40355;SDS011;26061;50.044;19.930;2023-04-03T01:06:05;8.87;;;4.93;;
40355;SDS011;26061;50.044;19.930;2023-04-03T01:08:31;9.77;;;5.53;;
40355;SDS011;26061;50.044;19.930;2023-04-03T01:10:57;10.87;;;5.80;;
40355;SDS011;26061;50.044;19.930;2023-04-03T01:13:30;13.70;;;6.80;;
40355;SDS011;26061;50.044;19.930;2023-04-03T01:16:00;14.07;;;7.13;;
40355;SDS011;26061;50.044;19.930;2023-04-03T01:18:28;12.53;;;6.93;;
40355;SDS011;26061;50.044;19.930;2023-04-03T01:26:02;9.73;;;6.07;;
40355;SDS011;26061;50.044;19.930;2023-04-03T01:28:30;10.50;;;5.67;;
40355;SDS011;26061;50.044;19.930;2023-04-03T01:33:40;9.20;;;5.00;;
40355;SDS011;26061;50.044;19.930;2023-04-03T01:36:07;11.30;;;4.43;;
40355;SDS011;26061;50.044;19.930;2023-04-03T01:38:33;9.17;;;4.80;;
40355;SDS011;26061;50.044;19.930;2023-04-03T01:40:58;7.53;;;4.43;;
40355;SDS011;26061;50.044;19.930;2023-04-03T01:43:24;8.73;;;3.70;;
40355;SDS011;26061;50.044;19.930;2023-04-03T01:45:50;11.27;;;4.40;;
40355;SDS011;26061;50.044;19.930;2023-04-03T01:48:18;13.63;;;5.60;;
40355;SDS011;26061;50.044;19.930;2023-04-03T01:50:44;8.37;;;4.90;;
40355;SDS011;26061;50.044;19.930;2023-04-03T01:53:09;7.17;;;4.40;;
40355;SDS011;26061;50.044;19.930;2023-04-03T01:55:35;6.37;;;4.10;;
40355;SDS011;26061;50.044;19.930;2023-04-03T01:58:01;8.50;;;4.00;;
40355;SDS011;26061;50.044;19.930;2023-04-03T02:00:28;6.63;;;3.50;;
40355;SDS011;26061;50.044;19.930;2023-04-03T02:02:53;5.83;;;3.70;;
40355;SDS011;26061;50.044;19.930;2023-04-03T02:05:19;5.87;;;3.90;;
40355;SDS011;26061;50.044;19.930;2023-04-03T02:07:45;6.03;;;3.97;;
40355;SDS011;26061;50.044;19.930;2023-04-03T02:10:11;9.90;;;4.53;;
40355;SDS011;26061;50.044;19.930;2023-04-03T02:12:37;8.87;;;3.93;;
40355;SDS011;26061;50.044;19.930;2023-04-03T02:15:03;10.40;;;5.67;;
40355;SDS011;26061;50.044;19.930;2023-04-03T02:17:29;15.90;;;7.40;;
40355;SDS011;26061;50.044;19.930;2023-04-03T02:19:55;10.70;;;4.83;;
40355;SDS011;26061;50.044;19.930;2023-04-03T02:22:20;5.27;;;3.63;;
40355;SDS011;26061;50.044;19.930;2023-04-03T02:24:46;6.97;;;3.60;;
40355;SDS011;26061;50.044;19.930;2023-04-03T02:27:12;9.03;;;3.57;;
40355;SDS011;26061;50.044;19.930;2023-04-03T02:29:37;9.07;;;3.47;;
40355;SDS011;26061;50.044;19.930;2023-04-03T02:32:03;12.70;;;5.57;;
40355;SDS011;26061;50.044;19.930;2023-04-03T02:34:29;15.43;;;5.97;;
40355;SDS011;26061;50.044;19.930;2023-04-03T02:36:55;16.70;;;6.77;;
40355;SDS011;26061;50.044;19.930;2023-04-03T02:39:21;8.50;;;4.77;;
40355;SDS011;26061;50.044;19.930;2023-04-03T02:41:46;11.37;;;5.33;;
40355;SDS011;26061;50.044;19.930;2023-04-03T02:44:12;8.60;;;4.40;;
40355;SDS011;26061;50.044;19.930;2023-04-03T02:46:38;10.13;;;5.37;;
40355;SDS011;26061;50.044;19.930;2023-04-03T02:49:04;7.57;;;4.77;;
40355;SDS011;26061;50.044;19.930;2023-04-03T02:51:30;11.60;;;5.73;;
40355;SDS011;26061;50.044;19.930;2023-04-03T02:53:56;14.37;;;8.33;;
40355;SDS011;26061;50.044;19.930;2023-04-03T02:56:21;11.90;;;6.43;;
40355;SDS011;26061;50.044;19.930;2023-04-03T02:58:47;11.97;;;7.47;;
40355;SDS011;26061;50.044;19.930;2023-04-03T03:01:13;14.83;;;7.47;;
40355;SDS011;26061;50.044;19.930;2023-04-03T03:03:39;8.13;;;5.13;;
40355;SDS011;26061;50.044;19.930;2023-04-03T03:06:06;7.77;;;4.63;;
40355;SDS011;26061;50.044;19.930;2023-04-03T03:08:32;10.90;;;4.63;;
40355;SDS011;26061;50.044;19.930;2023-04-03T03:10:58;8.13;;;5.10;;
40355;SDS011;26061;50.044;19.930;2023-04-03T03:13:24;9.53;;;5.57;;
40355;SDS011;26061;50.044;19.930;2023-04-03T03:15:50;9.80;;;5.67;;
40355;SDS011;26061;50.044;19.930;2023-04-03T03:18:16;7.93;;;4.50;;
40355;SDS011;26061;50.044;19.930;2023-04-03T03:20:42;9.97;;;4.90;;
40355;SDS011;26061;50.044;19.930;2023-04-03T03:23:07;5.43;;;3.97;;
40355;SDS011;26061;50.044;19.930;2023-04-03T03:25:33;11.20;;;6.17;;
40355;SDS011;26061;50.044;19.930;2023-04-03T03:28:02;9.00;;;5.17;;
40355;SDS011;26061;50.044;19.930;2023-04-03T03:30:28;15.17;;;5.33;;
40355;SDS011;26061;50.044;19.930;2023-04-03T03:32:54;8.97;;;5.33;;
40355;SDS011;26061;50.044;19.930;2023-04-03T03:35:19;13.50;;;5.40;;
40355;SDS011;26061;50.044;19.930;2023-04-03T03:37:45;7.83;;;4.20;;
40355;SDS011;26061;50.044;19.930;2023-04-03T03:40:11;9.07;;;4.33;;
40355;SDS011;26061;50.044;19.930;2023-04-03T03:42:38;9.23;;;4.40;;
40355;SDS011;26061;50.044;19.930;2023-04-03T03:45:04;9.60;;;5.03;;
40355;SDS011;26061;50.044;19.930;2023-04-03T03:47:31;10.57;;;5.10;;
40355;SDS011;26061;50.044;19.930;2023-04-03T03:49:56;10.10;;;4.17;;
40355;SDS011;26061;50.044;19.930;2023-04-03T03:52:22;12.30;;;4.90;;
40355;SDS011;26061;50.044;19.930;2023-04-03T03:54:48;12.10;;;4.37;;
40355;SDS011;26061;50.044;19.930;2023-04-03T03:57:14;13.10;;;4.70;;
40355;SDS011;26061;50.044;19.930;2023-04-03T03:59:40;8.07;;;4.57;;
40355;SDS011;26061;50.044;19.930;2023-04-03T04:02:07;16.83;;;6.03;;
40355;SDS011;26061;50.044;19.930;2023-04-03T04:04:33;7.30;;;3.43;;
40355;SDS011;26061;50.044;19.930;2023-04-03T04:06:59;13.70;;;6.37;;
40355;SDS011;26061;50.044;19.930;2023-04-03T04:09:26;13.00;;;5.10;;
40355;SDS011;26061;50.044;19.930;2023-04-03T04:11:52;15.37;;;6.03;;
40355;SDS011;26061;50.044;19.930;2023-04-03T04:14:18;10.63;;;4.93;;
40355;SDS011;26061;50.044;19.930;2023-04-03T04:16:46;12.47;;;5.00;;
40355;SDS011;26061;50.044;19.930;2023-04-03T04:19:12;17.57;;;6.53;;
40355;SDS011;26061;50.044;19.930;2023-04-03T04:21:38;18.43;;;6.83;;
40355;SDS011;26061;50.044;19.930;2023-04-03T04:24:04;13.70;;;5.90;;
40355;SDS011;26061;50.044;19.930;2023-04-03T04:26:30;9.97;;;5.73;;
40355;SDS011;26061;50.044;19.930;2023-04-03T04:28:56;13.30;;;5.97;;
40355;SDS011;26061;50.044;19.930;2023-04-03T04:31:22;18.27;;;7.80;;
40355;SDS011;26061;50.044;19.930;2023-04-03T04:33:47;12.80;;;4.87;;
40355;SDS011;26061;50.044;19.930;2023-04-03T04:36:13;19.13;;;7.17;;
40355;SDS011;26061;50.044;19.930;2023-04-03T04:38:40;15.63;;;6.20;;
40355;SDS011;26061;50.044;19.930;2023-04-03T04:41:06;18.07;;;6.50;;
40355;SDS011;26061;50.044;19.930;2023-04-03T04:43:32;13.50;;;6.00;;
40355;SDS011;26061;50.044;19.930;2023-04-03T04:46:08;11.77;;;5.50;;
40355;SDS011;26061;50.044;19.930;2023-04-03T04:48:36;15.10;;;6.53;;
40355;SDS011;26061;50.044;19.930;2023-04-03T04:51:03;11.90;;;5.30;;
40355;SDS011;26061;50.044;19.930;2023-04-03T04:53:29;10.57;;;5.53;;
40355;SDS011;26061;50.044;19.930;2023-04-03T04:55:55;13.37;;;5.57;;
40355;SDS011;26061;50.044;19.930;2023-04-03T04:58:21;16.73;;;5.47;;
40355;SDS011;26061;50.044;19.930;2023-04-03T05:00:46;12.80;;;6.20;;
40355;SDS011;26061;50.044;19.930;2023-04-03T05:03:12;10.17;;;4.73;;
40355;SDS011;26061;50.044;19.930;2023-04-03T05:05:38;7.73;;;4.17;;
40355;SDS011;26061;50.044;19.930;2023-04-03T05:08:04;16.53;;;6.40;;
40355;SDS011;26061;50.044;19.930;2023-04-03T05:10:30;16.53;;;6.43;;
40355;SDS011;26061;50.044;19.930;2023-04-03T05:12:56;12.27;;;5.70;;
40355;SDS011;26061;50.044;19.930;2023-04-03T05:15:22;13.17;;;5.43;;
40355;SDS011;26061;50.044;19.930;2023-04-03T05:17:48;20.67;;;6.13;;
40355;SDS011;26061;50.044;19.930;2023-04-03T05:20:14;10.43;;;5.10;;
40355;SDS011;26061;50.044;19.930;2023-04-03T05:22:40;15.43;;;5.40;;
40355;SDS011;26061;50.044;19.930;2023-04-03T05:25:06;10.67;;;4.50;;
40355;SDS011;26061;50.044;19.930;2023-04-03T05:27:32;9.83;;;4.37;;
40355;SDS011;26061;50.044;19.930;2023-04-03T05:29:57;15.30;;;6.37;;
40355;SDS011;26061;50.044;19.930;2023-04-03T05:32:23;17.63;;;7.63;;
40355;SDS011;26061;50.044;19.930;2023-04-03T05:34:51;8.43;;;4.20;;
40355;SDS011;26061;50.044;19.930;2023-04-03T05:37:17;21.37;;;7.63;;
40355;SDS011;26061;50.044;19.930;2023-04-03T05:39:43;15.40;;;7.10;;
40355;SDS011;26061;50.044;19.930;2023-04-03T05:42:08;26.27;;;8.93;;
40355;SDS011;26061;50.044;19.930;2023-04-03T05:44:34;16.33;;;6.40;;
40355;SDS011;26061;50.044;19.930;2023-04-03T05:47:00;23.33;;;7.60;;
40355;SDS011;26061;50.044;19.930;2023-04-03T05:49:26;26.30;;;9.40;;
40355;SDS011;26061;50.044;19.930;2023-04-03T05:51:52;25.57;;;8.77;;
40355;SDS011;26061;50.044;19.930;2023-04-03T05:54:19;18.43;;;6.00;;
40355;SDS011;26061;50.044;19.930;2023-04-03T05:56:50;20.97;;;7.43;;
40355;SDS011;26061;50.044;19.930;2023-04-03T05:59:17;15.83;;;5.63;;
40355;SDS011;26061;50.044;19.930;2023-04-03T06:01:43;17.10;;;6.30;;
40355;SDS011;26061;50.044;19.930;2023-04-03T06:04:09;13.03;;;5.40;;
40355;SDS011;26061;50.044;19.930;2023-04-03T06:06:48;20.20;;;7.17;;
40355;SDS011;26061;50.044;19.930;2023-04-03T06:09:17;20.57;;;6.60;;
40355;SDS011;26061;50.044;19.930;2023-04-03T06:11:44;16.40;;;6.47;;
40355;SDS011;26061;50.044;19.930;2023-04-03T06:14:10;11.97;;;4.83;;
40355;SDS011;26061;50.044;19.930;2023-04-03T06:16:38;16.13;;;6.93;;
40355;SDS011;26061;50.044;19.930;2023-04-03T06:19:05;12.23;;;4.83;;
40355;SDS011;26061;50.044;19.930;2023-04-03T06:21:32;14.73;;;5.77;;
40355;SDS011;26061;50.044;19.930;2023-04-03T06:23:58;15.73;;;6.07;;
40355;SDS011;26061;50.044;19.930;2023-04-03T06:26:23;13.33;;;5.33;;
40355;SDS011;26061;50.044;19.930;2023-04-03T06:28:49;13.00;;;5.20;;
40355;SDS011;26061;50.044;19.930;2023-04-03T06:31:14;15.03;;;5.83;;
40355;SDS011;26061;50.044;19.930;2023-04-03T06:33:41;13.90;;;5.13;;
40355;SDS011;26061;50.044;19.930;2023-04-03T06:36:07;9.57;;;4.03;;
40355;SDS011;26061;50.044;19.930;2023-04-03T06:38:36;11.77;;;6.03;;
40355;SDS011;26061;50.044;19.930;2023-04-03T06:41:01;11.60;;;4.47;;
40355;SDS011;26061;50.044;19.930;2023-04-03T06:43:27;7.43;;;3.47;;
40355;SDS011;26061;50.044;19.930;2023-04-03T06:45:53;6.07;;;4.53;;
40355;SDS011;26061;50.044;19.930;2023-04-03T06:48:18;14.50;;;5.73;;
40355;SDS011;26061;50.044;19.930;2023-04-03T06:50:44;9.60;;;4.43;;
40355;SDS011;26061;50.044;19.930;2023-04-03T06:53:10;20.20;;;7.23;;
40355;SDS011;26061;50.044;19.930;2023-04-03T06:55:35;13.80;;;4.97;;
40355;SDS011;26061;50.044;19.930;2023-04-03T06:58:02;14.67;;;5.87;;
40355;SDS011;26061;50.044;19.930;2023-04-03T07:00:28;9.23;;;4.30;;
40355;SDS011;26061;50.044;19.930;2023-04-03T07:02:55;12.07;;;4.80;;
40355;SDS011;26061;50.044;19.930;2023-04-03T07:05:22;12.43;;;5.20;;
40355;SDS011;26061;50.044;19.930;2023-04-03T07:07:49;8.83;;;4.23;;
40355;SDS011;26061;50.044;19.930;2023-04-03T07:10:15;16.83;;;6.67;;
40355;SDS011;26061;50.044;19.930;2023-04-03T07:12:41;9.70;;;4.37;;
40355;SDS011;26061;50.044;19.930;2023-04-03T07:15:07;13.37;;;5.30;;
40355;SDS011;26061;50.044;19.930;2023-04-03T07:17:34;17.17;;;6.30;;
40355;SDS011;26061;50.044;19.930;2023-04-03T07:20:01;11.67;;;4.53;;
40355;SDS011;26061;50.044;19.930;2023-04-03T07:22:27;9.93;;;3.97;;
40355;SDS011;26061;50.044;19.930;2023-04-03T07:24:53;8.17;;;3.40;;
40355;SDS011;26061;50.044;19.930;2023-04-03T07:27:19;20.10;;;5.23;;
40355;SDS011;26061;50.044;19.930;2023-04-03T07:29:44;11.70;;;4.80;;
40355;SDS011;26061;50.044;19.930;2023-04-03T07:32:10;9.27;;;4.33;;
40355;SDS011;26061;50.044;19.930;2023-04-03T07:34:36;8.80;;;3.77;;
40355;SDS011;26061;50.044;19.930;2023-04-03T07:37:02;10.70;;;3.93;;
40355;SDS011;26061;50.044;19.930;2023-04-03T07:39:28;16.57;;;5.27;;
40355;SDS011;26061;50.044;19.930;2023-04-03T07:41:54;13.57;;;5.67;;
40355;SDS011;26061;50.044;19.930;2023-04-03T07:44:23;14.47;;;4.90;;
40355;SDS011;26061;50.044;19.930;2023-04-03T07:46:49;9.90;;;4.20;;
40355;SDS011;26061;50.044;19.930;2023-04-03T07:49:16;9.33;;;3.23;;
40355;SDS011;26061;50.044;19.930;2023-04-03T07:51:43;7.10;;;3.70;;
40355;SDS011;26061;50.044;19.930;2023-04-03T07:54:09;6.57;;;3.57;;
40355;SDS011;26061;50.044;19.930;2023-04-03T07:56:36;8.80;;;2.70;;
40355;SDS011;26061;50.044;19.930;2023-04-03T07:59:01;7.10;;;2.40;;
40355;SDS011;26061;50.044;19.930;2023-04-03T08:01:28;6.40;;;2.90;;
40355;SDS011;26061;50.044;19.930;2023-04-03T08:03:54;6.37;;;2.37;;
40355;SDS011;26061;50.044;19.930;2023-04-03T08:06:20;12.67;;;4.00;;
40355;SDS011;26061;50.044;19.930;2023-04-03T08:08:46;5.85;;;2.85;;
40355;SDS011;26061;50.044;19.930;2023-04-03T08:11:12;8.27;;;3.43;;
40355;SDS011;26061;50.044;19.930;2023-04-03T08:13:38;7.77;;;3.27;;
40355;SDS011;26061;50.044;19.930;2023-04-03T08:16:07;12.40;;;4.03;;
40355;SDS011;26061;50.044;19.930;2023-04-03T08:18:52;7.00;;;2.13;;
40355;SDS011;26061;50.044;19.930;2023-04-03T08:21:18;28.27;;;9.80;;
40355;SDS011;26061;50.044;19.930;2023-04-03T08:23:43;36.27;;;12.93;;
40355;SDS011;26061;50.044;19.930;2023-04-03T08:26:10;6.37;;;2.90;;
40355;SDS011;26061;50.044;19.930;2023-04-03T08:28:41;6.70;;;2.70;;
40355;SDS011;26061;50.044;19.930;2023-04-03T08:31:09;10.23;;;4.13;;
40355;SDS011;26061;50.044;19.930;2023-04-03T08:33:37;7.23;;;2.60;;
40355;SDS011;26061;50.044;19.930;2023-04-03T08:36:04;10.60;;;3.27;;
40355;SDS011;26061;50.044;19.930;2023-04-03T08:38:32;7.10;;;3.57;;
40355;SDS011;26061;50.044;19.930;2023-04-03T08:41:04;16.17;;;4.87;;
40355;SDS011;26061;50.044;19.930;2023-04-03T08:43:40;7.97;;;2.97;;
40355;SDS011;26061;50.044;19.930;2023-04-03T08:46:10;5.10;;;2.00;;
40355;SDS011;26061;50.044;19.930;2023-04-03T08:48:42;10.60;;;2.90;;
40355;SDS011;26061;50.044;19.930;2023-04-03T08:51:19;10.27;;;3.60;;
40355;SDS011;26061;50.044;19.930;2023-04-03T08:53:56;11.33;;;3.93;;
40355;SDS011;26061;50.044;19.930;2023-04-03T08:56:27;5.07;;;2.40;;
40355;SDS011;26061;50.044;19.930;2023-04-03T09:04:00;8.20;;;3.53;;
40355;SDS011;26061;50.044;19.930;2023-04-03T09:06:29;11.00;;;3.33;;
40355;SDS011;26061;50.044;19.930;2023-04-03T09:11:55;7.03;;;3.50;;
40355;SDS011;26061;50.044;19.930;2023-04-03T09:17:04;4.87;;;2.00;;
40355;SDS011;26061;50.044;19.930;2023-04-03T09:19:41;15.13;;;4.10;;
40355;SDS011;26061;50.044;19.930;2023-04-03T09:22:25;6.07;;;1.97;;
40355;SDS011;26061;50.044;19.930;2023-04-03T09:24:55;3.60;;;1.83;;
40355;SDS011;26061;50.044;19.930;2023-04-03T09:27:25;2.47;;;1.60;;
40355;SDS011;26061;50.044;19.930;2023-04-03T09:29:53;6.00;;;1.80;;
40355;SDS011;26061;50.044;19.930;2023-04-03T09:32:23;14.00;;;3.60;;
40355;SDS011;26061;50.044;19.930;2023-04-03T09:34:52;3.33;;;2.17;;
40355;SDS011;26061;50.044;19.930;2023-04-03T09:40:01;11.68;;;3.85;;
40355;SDS011;26061;50.044;19.930;2023-04-03T09:42:30;5.18;;;2.00;;
40355;SDS011;26061;50.044;19.930;2023-04-03T09:44:58;3.25;;;1.60;;
40355;SDS011;26061;50.044;19.930;2023-04-03T09:47:38;7.22;;;3.15;;
40355;SDS011;26061;50.044;19.930;2023-04-03T09:50:09;7.00;;;3.08;;
40355;SDS011;26061;50.044;19.930;2023-04-03T09:52:50;9.10;;;2.78;;
40355;SDS011;26061;50.044;19.930;2023-04-03T09:55:26;14.52;;;6.25;;
40355;SDS011;26061;50.044;19.930;2023-04-03T09:57:55;16.50;;;4.72;;
40355;SDS011;26061;50.044;19.930;2023-04-03T10:02:58;15.23;;;4.07;;
40355;SDS011;26061;50.044;19.930;2023-04-03T10:10:34;7.15;;;3.13;;
40355;SDS011;26061;50.044;19.930;2023-04-03T10:16:00;13.68;;;4.25;;
40355;SDS011;26061;50.044;19.930;2023-04-03T10:21:06;3.33;;;1.48;;
40355;SDS011;26061;50.044;19.930;2023-04-03T10:23:41;5.43;;;2.50;;
40355;SDS011;26061;50.044;19.930;2023-04-03T10:26:22;3.50;;;1.80;;
40355;SDS011;26061;50.044;19.930;2023-04-03T10:31:36;2.17;;;1.35;;
40355;SDS011;26061;50.044;19.930;2023-04-03T10:58:56;2.60;;;1.60;;
40355;SDS011;26061;50.044;19.930;2023-04-03T11:01:33;2.58;;;1.63;;
40355;SDS011;26061;50.044;19.930;2023-04-03T11:04:03;2.45;;;1.40;;
40355;SDS011;26061;50.044;19.930;2023-04-03T11:06:38;1.65;;;1.30;;
40355;SDS011;26061;50.044;19.930;2023-04-03T11:09:15;2.20;;;1.58;;
40355;SDS011;26061;50.044;19.930;2023-04-03T11:11:47;2.53;;;1.52;;
40355;SDS011;26061;50.044;19.930;2023-04-03T11:17:01;5.40;;;2.72;;
40355;SDS011;26061;50.044;19.930;2023-04-03T11:19:35;4.10;;;2.72;;
40355;SDS011;26061;50.044;19.930;2023-04-03T11:27:56;2.33;;;1.30;;
40355;SDS011;26061;50.044;19.930;2023-04-03T11:30:42;2.17;;;1.38;;
40355;SDS011;26061;50.044;19.930;2023-04-03T11:36:39;2.15;;;1.80;;
40355;SDS011;26061;50.044;19.930;2023-04-03T11:39:16;1.83;;;1.20;;
40355;SDS011;26061;50.044;19.930;2023-04-03T11:41:53;2.35;;;1.10;;
40355;SDS011;26061;50.044;19.930;2023-04-03T11:44:33;1.83;;;1.25;;
40355;SDS011;26061;50.044;19.930;2023-04-03T11:47:08;2.25;;;1.25;;
40355;SDS011;26061;50.044;19.930;2023-04-03T12:13:39;14.23;;;3.90;;
40355;SDS011;26061;50.044;19.930;2023-04-03T12:16:07;4.25;;;1.88;;
40355;SDS011;26061;50.044;19.930;2023-04-03T12:18:58;12.20;;;3.65;;
40355;SDS011;26061;50.044;19.930;2023-04-03T12:24:04;6.28;;;4.15;;
40355;SDS011;26061;50.044;19.930;2023-04-03T12:26:38;3.50;;;1.33;;
40355;SDS011;26061;50.044;19.930;2023-04-03T12:29:20;3.60;;;1.80;;
40355;SDS011;26061;50.044;19.930;2023-04-03T12:39:55;4.13;;;2.10;;
40355;SDS011;26061;50.044;19.930;2023-04-03T12:42:39;3.22;;;2.15;;
40355;SDS011;26061;50.044;19.930;2023-04-03T12:47:46;2.58;;;1.70;;
40355;SDS011;26061;50.044;19.930;2023-04-03T12:50:18;3.80;;;1.75;;
40355;SDS011;26061;50.044;19.930;2023-04-03T12:53:32;3.80;;;2.00;;
40355;SDS011;26061;50.044;19.930;2023-04-03T12:55:40;3.47;;;1.42;;
40355;SDS011;26061;50.044;19.930;2023-04-03T12:58:16;2.92;;;1.75;;
40355;SDS011;26061;50.044;19.930;2023-04-03T13:00:57;3.42;;;1.70;;
40355;SDS011;26061;50.044;19.930;2023-04-03T13:03:28;1.45;;;1.30;;
40355;SDS011;26061;50.044;19.930;2023-04-03T13:05:59;2.53;;;1.80;;
40355;SDS011;26061;50.044;19.930;2023-04-03T13:08:29;2.78;;;1.42;;
40355;SDS011;26061;50.044;19.930;2023-04-03T13:10:58;2.83;;;1.40;;
40355;SDS011;26061;50.044;19.930;2023-04-03T13:13:27;2.63;;;1.67;;
40355;SDS011;26061;50.044;19.930;2023-04-03T13:15:53;3.60;;;1.42;;
40355;SDS011;26061;50.044;19.930;2023-04-03T13:18:23;3.03;;;1.63;;
40355;SDS011;26061;50.044;19.930;2023-04-03T13:20:50;2.70;;;1.80;;
40355;SDS011;26061;50.044;19.930;2023-04-03T13:23:17;5.65;;;1.67;;
40355;SDS011;26061;50.044;19.930;2023-04-03T13:25:46;2.55;;;1.80;;
40355;SDS011;26061;50.044;19.930;2023-04-03T13:28:15;2.55;;;1.50;;
40355;SDS011;26061;50.044;19.930;2023-04-03T13:31:04;4.60;;;1.88;;
40355;SDS011;26061;50.044;19.930;2023-04-03T13:33:32;3.67;;;2.00;;
40355;SDS011;26061;50.044;19.930;2023-04-03T13:36:05;4.50;;;2.20;;
40355;SDS011;26061;50.044;19.930;2023-04-03T13:38:33;2.90;;;1.52;;
40355;SDS011;26061;50.044;19.930;2023-04-03T13:41:03;2.80;;;1.93;;
40355;SDS011;26061;50.044;19.930;2023-04-03T13:43:35;3.47;;;1.87;;
40355;SDS011;26061;50.044;19.930;2023-04-03T13:46:05;2.50;;;1.30;;
40355;SDS011;26061;50.044;19.930;2023-04-03T13:48:49;2.70;;;1.57;;
40355;SDS011;26061;50.044;19.930;2023-04-03T13:53:56;7.90;;;1.50;;
40355;SDS011;26061;50.044;19.930;2023-04-03T13:56:33;2.07;;;1.40;;
40355;SDS011;26061;50.044;19.930;2023-04-03T14:01:37;5.20;;;1.90;;
40355;SDS011;26061;50.044;19.930;2023-04-03T14:04:12;3.70;;;1.80;;
40355;SDS011;26061;50.044;19.930;2023-04-03T14:06:44;4.43;;;2.13;;
40355;SDS011;26061;50.044;19.930;2023-04-03T14:09:11;4.83;;;2.20;;
40355;SDS011;26061;50.044;19.930;2023-04-03T14:11:37;1.93;;;1.70;;
40355;SDS011;26061;50.044;19.930;2023-04-03T14:14:11;5.17;;;1.90;;
40355;SDS011;26061;50.044;19.930;2023-04-03T14:16:40;2.07;;;1.60;;
40355;SDS011;26061;50.044;19.930;2023-04-03T14:19:25;3.30;;;1.93;;
40355;SDS011;26061;50.044;19.930;2023-04-03T14:21:53;3.77;;;1.97;;
40355;SDS011;26061;50.044;19.930;2023-04-03T14:24:21;2.57;;;1.73;;
40355;SDS011;26061;50.044;19.930;2023-04-03T14:26:48;4.13;;;2.17;;
40355;SDS011;26061;50.044;19.930;2023-04-03T14:29:16;1.93;;;1.50;;
40355;SDS011;26061;50.044;19.930;2023-04-03T14:31:43;4.23;;;3.10;;
40355;SDS011;26061;50.044;19.930;2023-04-03T14:34:12;4.70;;;2.43;;
40355;SDS011;26061;50.044;19.930;2023-04-03T14:36:38;3.17;;;1.70;;
40355;SDS011;26061;50.044;19.930;2023-04-03T14:39:07;4.07;;;1.83;;
40355;SDS011;26061;50.044;19.930;2023-04-03T14:41:35;2.83;;;1.60;;
40355;SDS011;26061;50.044;19.930;2023-04-03T14:44:01;3.57;;;1.83;;
40355;SDS011;26061;50.044;19.930;2023-04-03T14:46:45;7.70;;;3.20;;
40355;SDS011;26061;50.044;19.930;2023-04-03T14:49:19;2.57;;;2.07;;
40355;SDS011;26061;50.044;19.930;2023-04-03T14:51:47;3.00;;;2.00;;
40355;SDS011;26061;50.044;19.930;2023-04-03T14:54:14;12.13;;;3.60;;
40355;SDS011;26061;50.044;19.930;2023-04-03T14:56:41;10.07;;;4.10;;
40355;SDS011;26061;50.044;19.930;2023-04-03T14:59:09;8.43;;;3.50;;
40355;SDS011;26061;50.044;19.930;2023-04-03T15:01:36;6.50;;;2.67;;
40355;SDS011;26061;50.044;19.930;2023-04-03T15:04:05;7.33;;;3.33;;
40355;SDS011;26061;50.044;19.930;2023-04-03T15:06:36;7.10;;;3.47;;
40355;SDS011;26061;50.044;19.930;2023-04-03T15:09:01;3.97;;;2.50;;
40355;SDS011;26061;50.044;19.930;2023-04-03T15:11:28;9.47;;;3.43;;
40355;SDS011;26061;50.044;19.930;2023-04-03T15:13:54;7.77;;;3.73;;
40355;SDS011;26061;50.044;19.930;2023-04-03T15:16:20;6.60;;;2.50;;
40355;SDS011;26061;50.044;19.930;2023-04-03T15:18:46;13.67;;;4.03;;
40355;SDS011;26061;50.044;19.930;2023-04-03T15:21:13;11.87;;;4.97;;
40355;SDS011;26061;50.044;19.930;2023-04-03T15:23:39;9.60;;;3.63;;
40355;SDS011;26061;50.044;19.930;2023-04-03T15:26:04;7.80;;;3.70;;
40355;SDS011;26061;50.044;19.930;2023-04-03T15:28:34;8.87;;;3.80;;
40355;SDS011;26061;50.044;19.930;2023-04-03T15:31:02;6.37;;;3.70;;
40355;SDS011;26061;50.044;19.930;2023-04-03T15:33:30;7.63;;;2.50;;
40355;SDS011;26061;50.044;19.930;2023-04-03T15:35:56;7.90;;;3.03;;
40355;SDS011;26061;50.044;19.930;2023-04-03T15:38:22;7.33;;;3.67;;
40355;SDS011;26061;50.044;19.930;2023-04-03T15:40:48;10.73;;;3.80;;
40355;SDS011;26061;50.044;19.930;2023-04-03T15:43:14;9.40;;;3.60;;
40355;SDS011;26061;50.044;19.930;2023-04-03T15:45:40;8.30;;;3.80;;
40355;SDS011;26061;50.044;19.930;2023-04-03T15:48:07;5.87;;;3.20;;
40355;SDS011;26061;50.044;19.930;2023-04-03T15:50:33;11.07;;;4.03;;
40355;SDS011;26061;50.044;19.930;2023-04-03T15:53:00;10.27;;;4.10;;
40355;SDS011;26061;50.044;19.930;2023-04-03T15:55:28;8.03;;;3.33;;
40355;SDS011;26061;50.044;19.930;2023-04-03T15:57:55;5.23;;;2.30;;
40355;SDS011;26061;50.044;19.930;2023-04-03T16:00:21;2.80;;;2.20;;
40355;SDS011;26061;50.044;19.930;2023-04-03T16:02:48;4.97;;;3.10;;
40355;SDS011;26061;50.044;19.930;2023-04-03T16:05:16;9.40;;;5.53;;
40355;SDS011;26061;50.044;19.930;2023-04-03T16:07:43;4.97;;;3.13;;
40355;SDS011;26061;50.044;19.930;2023-04-03T16:10:09;7.90;;;5.03;;
40355;SDS011;26061;50.044;19.930;2023-04-03T16:12:36;7.00;;;3.43;;
40355;SDS011;26061;50.044;19.930;2023-04-03T16:15:03;9.07;;;4.03;;
40355;SDS011;26061;50.044;19.930;2023-04-03T16:17:29;9.87;;;3.87;;
40355;SDS011;26061;50.044;19.930;2023-04-03T16:19:57;9.33;;;4.27;;
40355;SDS011;26061;50.044;19.930;2023-04-03T16:22:23;13.30;;;4.73;;
40355;SDS011;26061;50.044;19.930;2023-04-03T16:24:51;23.37;;;5.07;;
40355;SDS011;26061;50.044;19.930;2023-04-03T16:27:17;7.30;;;4.03;;
40355;SDS011;26061;50.044;19.930;2023-04-03T16:29:42;12.00;;;6.37;;
40355;SDS011;26061;50.044;19.930;2023-04-03T16:32:08;12.80;;;5.60;;